Greenville, Kentucky
Current Conditions -  °F | °C
As of 3:15 AM on Wednesday 22 Oct 2014 (Local Time) from K2I0 Reporting Station
Clear Clear  
Wind Chill: 44°   Ceiling: Unl
Heat Index: 44°   Visibility: 10mi
Dew Point: 41°   Wind: 3mph
Humidity: 90%   Direction: 20°NNE
Pressure: 30.2"   Gusts: NA
Location:  37.2°N, 87.18°W
Report Text: K2I0 220815Z AUTO 02003KT 10SM CLR 07/05 A3020 RMK AO2 T00670052
Loading
Personal Weather Stations






























Interactive Weather Map
Tropical Storm Tracking
New forecast layout! Learn more

10-Day Weather Forecast

Advertisements
Track Severe Weather on mobile